Time;durP1;ratioP1;P1;durP2;ratioP2;P2;SDS_P1;SDS_P2;PMS_P1;PMS_P2;Temp;Humidity;BMP_temperature;BMP_pressure;BME280_temperature;BME280_humidity;BME280_pressure;Samples;Min_cycle;Max_cycle;Signal;HPM_P1;HPM_P2
2023/07/15 05:51:59;;;;;;;;;3.33;0.67;;;;;22.91;58.28;100341.63;4885053;28;46229;-95
2023/07/15 05:54:25;;;;;;;;;1.67;1.67;;;;;22.87;58.57;100356.97;4869907;29;45557;-95
2023/07/15 05:56:50;;;;;;;;;2.00;2.00;;;;;22.87;59.17;100374.72;4869309;29;45587;-95
2023/07/15 05:59:15;;;;;;;;;2.33;0.67;;;;;22.85;58.58;100366.06;4886006;29;45429;-95
2023/07/15 06:01:41;;;;;;;;;1.25;1.25;;;;;22.84;59.06;100367.88;4886026;29;45283;-96
2023/07/15 06:04:08;;;;;;;;;1.50;1.00;;;;;22.85;59.32;100366.88;4875813;29;46441;-95
2023/07/15 06:06:34;;;;;;;;;1.00;1.00;;;;;22.84;59.29;100370.53;4875805;29;45493;-95
2023/07/15 06:08:59;;;;;;;;;2.75;1.00;;;;;22.80;59.17;100383.25;4875295;29;44710;-93
2023/07/15 06:11:25;;;;;;;;;4.50;3.00;;;;;22.83;59.51;100376.81;4876070;29;44812;-95
2023/07/15 06:13:50;;;;;;;;;3.00;2.00;;;;;22.83;59.84;100377.63;4890562;29;47368;-95
2023/07/15 06:16:16;;;;;;;;;3.00;2.00;;;;;22.87;59.73;100387.97;4868988;29;45444;-95
2023/07/15 06:18:41;;;;;;;;;1.33;1.33;;;;;22.87;60.03;100387.97;4870942;29;44828;-95
2023/07/15 06:21:09;;;;;;;;;2.75;0.50;;;;;22.81;59.64;100399.97;4872419;29;45642;-96
2023/07/15 06:23:35;;;;;;;;;1.00;1.00;;;;;22.74;59.98;100405.03;4868249;29;46968;-96
2023/07/15 06:26:00;;;;;;;;;1.67;1.67;;;;;22.76;60.17;100397.78;4869060;29;46330;-96
2023/07/15 06:28:26;;;;;;;;;4.00;2.00;;;;;22.74;59.94;100396.25;4870666;29;45351;-94
2023/07/15 06:31:06;;;;;;;;;0.67;0.67;;;;;22.74;60.50;100399.75;4889377;29;44921;-96
2023/07/15 06:33:36;;;;;;;;;1.50;0.50;;;;;22.71;60.64;100394.72;4884615;29;47099;-95
2023/07/15 06:36:03;;;;;;;;;2.33;1.00;;;;;22.64;60.73;100399.75;4888377;29;44677;-95
2023/07/15 06:38:29;;;;;;;;;3.00;2.00;;;;;22.60;60.58;100378.97;4876122;29;44779;-95
2023/07/15 06:40:55;;;;;;;;;4.25;3.00;;;;;22.62;60.69;100399.06;4873598;29;44872;-96
2023/07/15 06:43:21;;;;;;;;;0.50;0.50;;;;;22.64;61.21;100407.69;4892162;29;46885;-95
2023/07/15 06:45:46;;;;;;;;;2.75;2.75;;;;;22.62;60.81;100395.56;4877168;29;44751;-95
2023/07/15 06:48:12;;;;;;;;;3.00;1.25;;;;;22.60;60.57;100408.97;4879465;29;45285;-96
2023/07/15 06:50:38;;;;;;;;;2.33;2.33;;;;;22.57;60.67;100413.72;4891922;29;45451;-96
2023/07/15 06:53:03;;;;;;;;;2.00;2.00;;;;;22.53;60.71;100408.69;4874669;29;47035;-96
2023/07/15 06:55:28;;;;;;;;;0.50;0.25;;;;;22.51;60.18;100408.00;4873526;29;44714;-94
2023/07/15 06:57:54;;;;;;;;;1.00;1.00;;;;;22.49;60.14;100414.41;4887844;29;44838;-95
2023/07/15 07:00:21;;;;;;;;;2.75;2.75;;;;;22.51;59.87;100429.19;4872215;29;45260;-96
2023/07/15 07:02:47;;;;;;;;;3.33;2.33;;;;;22.47;59.51;100409.25;4874950;29;45625;-96
2023/07/15 07:05:12;;;;;;;;;1.67;1.33;;;;;22.46;59.38;100404.06;4889668;29;44824;-96
2023/07/15 07:07:38;;;;;;;;;2.00;1.33;;;;;22.47;58.96;100414.53;4872386;29;44780;-96
2023/07/15 07:10:03;;;;;;;;;0.33;0.33;;;;;22.46;58.60;100419.97;4886326;29;45639;-96
2023/07/15 07:12:29;;;;;;;;;1.67;1.67;;;;;22.50;59.08;100424.84;4868760;29;47072;-96
2023/07/15 07:14:54;;;;;;;;;1.67;1.00;;;;;22.55;58.96;100429.78;4874991;29;45351;-96
2023/07/15 07:17:20;;;;;;;;;1.00;1.00;;;;;22.57;58.31;100429.66;4875398;29;45109;-96
2023/07/15 07:19:46;;;;;;;;;3.00;1.00;;;;;22.57;58.53;100419.03;4881503;29;44844;-95
2023/07/15 07:22:12;;;;;;;;;1.67;1.33;;;;;22.58;58.50;100432.13;4883264;29;45650;-96
2023/07/15 07:24:38;;;;;;;;;1.75;1.25;;;;;22.61;59.19;100437.16;4882633;29;44582;-95
2023/07/15 07:27:04;;;;;;;;;1.33;1.00;;;;;22.58;57.93;100432.13;4896218;29;44806;-96
2023/07/15 07:29:29;;;;;;;;;1.50;1.50;;;;;22.56;58.33;100434.09;4898371;28;44968;-96
2023/07/15 07:31:55;;;;;;;;;2.00;2.00;;;;;22.60;57.93;100435.50;4870536;29;45382;-96
2023/07/15 07:34:23;;;;;;;;;2.00;1.67;;;;;22.64;57.77;100446.66;4878907;29;44774;-96
2023/07/15 07:36:48;;;;;;;;;1.33;0.33;;;;;22.61;57.47;100442.47;4874052;29;44836;-96
2023/07/15 07:39:14;;;;;;;;;0.33;0.33;;;;;22.57;57.35;100446.38;4861332;29;45783;-96
2023/07/15 07:41:40;;;;;;;;;0.33;0.33;;;;;22.53;57.02;100439.66;4892957;29;45708;-96
2023/07/15 07:44:06;;;;;;;;;2.00;2.00;;;;;22.55;56.79;100443.84;4873418;29;45335;-96
2023/07/15 07:46:31;;;;;;;;;1.00;1.00;;;;;22.61;56.51;100458.38;4874992;29;45174;-95
2023/07/15 07:48:56;;;;;;;;;1.67;1.67;;;;;22.52;56.82;100459.19;4876162;29;44846;-96
2023/07/15 07:51:22;;;;;;;;;1.00;0.33;;;;;22.58;56.26;100463.94;4888293;29;46921;-96
2023/07/15 07:53:50;;;;;;;;;2.67;1.67;;;;;22.51;55.84;100466.31;4914792;29;44746;-96
2023/07/15 07:56:27;;;;;;;;;2.00;2.00;;;;;22.45;55.63;100466.84;4901920;29;44762;-96
2023/07/15 07:58:58;;;;;;;;;3.67;1.33;;;;;22.35;55.10;100452.78;4901363;29;44833;-96
2023/07/15 08:01:28;;;;;;;;;1.33;1.00;;;;;22.35;55.49;100466.03;4902574;29;45306;-95
2023/07/15 08:03:54;;;;;;;;;1.67;1.00;;;;;22.30;55.80;100461.13;4895939;29;45504;-96
2023/07/15 08:06:21;;;;;;;;;1.00;0.33;;;;;22.30;55.50;100463.78;4896683;28;45285;-96
2023/07/15 08:08:46;;;;;;;;;0.33;0.33;;;;;22.34;56.07;100465.19;4895237;29;44937;-96
2023/07/15 08:11:12;;;;;;;;;1.00;1.00;;;;;22.33;55.52;100457.38;4919234;28;48290;-96
2023/07/15 08:13:37;;;;;;;;;3.33;2.00;;;;;22.36;55.60;100462.41;4899437;29;44932;-95
2023/07/15 08:16:26;;;;;;;;;3.00;1.00;;;;;22.39;55.73;100478.84;4896387;29;44895;-96
2023/07/15 08:18:51;;;;;;;;;1.33;1.33;;;;;22.42;56.07;100464.50;4897016;29;45155;-96
2023/07/15 08:21:17;;;;;;;;;3.00;2.00;;;;;22.51;56.13;100466.31;4894568;29;45569;-96
2023/07/15 08:23:45;;;;;;;;;2.67;2.00;;;;;22.58;56.19;100463.13;4897480;29;45339;-96
2023/07/15 08:26:10;;;;;;;;;3.00;2.00;;;;;22.69;56.17;100479.72;4901860;29;44767;-96
2023/07/15 08:28:35;;;;;;;;;2.67;2.67;;;;;22.74;56.26;100478.47;4893870;29;44879;-96
2023/07/15 08:31:01;;;;;;;;;3.00;2.00;;;;;22.85;56.00;100474.81;4892974;29;46792;-96
2023/07/15 08:33:26;;;;;;;;;1.67;1.67;;;;;22.90;56.27;100472.56;4995892;23;46077;-96
2023/07/15 08:35:58;;;;;;;;;1.67;1.33;;;;;22.98;55.91;100482.47;4920799;28;45424;-95
2023/07/15 08:38:23;;;;;;;;;3.67;2.00;;;;;22.98;55.90;100472.69;4922580;28;44909;-95
2023/07/15 08:40:55;;;;;;;;;3.33;1.33;;;;;23.04;55.89;100488.03;4916920;28;45714;-95
2023/07/15 08:43:20;;;;;;;;;0.67;0.67;;;;;23.03;55.65;100489.03;4929361;28;44820;-94
2023/07/15 08:45:48;;;;;;;;;6.00;2.75;;;;;23.11;55.96;100485.66;4919336;28;45396;-94
2023/07/15 08:48:14;;;;;;;;;2.00;1.33;;;;;23.16;55.44;100470.13;4915767;28;44897;-95
2023/07/15 08:50:40;;;;;;;;;1.67;1.67;;;;;23.31;55.59;100469.66;4915715;28;47041;-94
2023/07/15 08:53:05;;;;;;;;;3.00;1.00;;;;;23.44;55.21;100470.22;4906422;28;44845;-95
2023/07/15 08:55:31;;;;;;;;;1.00;1.00;;;;;23.53;54.93;100468.50;4912412;28;45509;-95
2023/07/15 08:58:00;;;;;;;;;1.00;1.00;;;;;23.62;54.41;100458.81;4926643;28;44874;-95
2023/07/15 09:00:26;;;;;;;;;4.00;1.00;;;;;23.69;53.87;100459.88;4939738;28;45653;-94
2023/07/15 09:02:52;;;;;;;;;1.00;0.00;;;;;23.64;53.78;100464.78;4918822;28;45213;-95
2023/07/15 09:05:18;;;;;;;;;2.67;1.00;;;;;23.68;53.51;100463.53;4922148;28;44797;-95
2023/07/15 09:07:52;;;;;;;;;1.00;0.00;;;;;23.76;53.63;100462.78;4916718;28;44963;-95
2023/07/15 09:10:18;;;;;;;;;2.33;1.00;;;;;23.75;53.31;100456.63;4917548;29;48211;-95
2023/07/15 09:12:45;;;;;;;;;2.00;1.00;;;;;23.82;53.09;100469.31;4926577;28;44688;-95
2023/07/15 09:15:12;;;;;;;;;1.00;1.00;;;;;23.82;52.86;100470.16;4925254;28;44889;-96
2023/07/15 09:17:38;;;;;;;;;1.67;1.67;;;;;23.79;53.00;100472.28;4926287;28;44899;-95
2023/07/15 09:20:14;;;;;;;;;1.33;1.33;;;;;23.82;52.88;100474.63;4940440;28;45244;-96
2023/07/15 09:22:39;;;;;;;;;1.00;1.00;;;;;23.88;52.86;100479.34;4917834;28;45334;-96
2023/07/15 09:25:08;;;;;;;;;2.33;1.00;;;;;23.88;53.03;100488.16;4922911;28;44725;-96
2023/07/15 09:27:40;;;;;;;;;1.33;1.33;;;;;23.85;52.61;100474.34;4942538;28;44811;-95
2023/07/15 09:30:08;;;;;;;;;2.67;1.00;;;;;23.87;52.63;100469.69;4927303;28;47013;-95
2023/07/15 09:32:33;;;;;;;;;3.00;2.00;;;;;23.87;52.36;100480.31;4919614;29;44890;-96
2023/07/15 09:34:59;;;;;;;;;3.67;2.00;;;;;23.91;51.86;100486.16;4920925;29;44882;-94
2023/07/15 09:37:29;;;;;;;;;4.67;2.00;;;;;23.82;51.96;100482.59;4917808;29;44901;-95
2023/07/15 09:40:09;;;;;;;;;1.00;0.33;;;;;23.74;51.66;100473.56;4924105;29;46822;-94
2023/07/15 09:42:51;;;;;;;;;4.00;2.00;;;;;23.71;51.66;100465.91;4901917;28;44859;-96
2023/07/15 09:45:32;;;;;;;;;0.00;0.00;;;;;23.76;51.96;100479.53;4924796;28;45062;-95
2023/07/15 09:47:58;;;;;;;;;2.33;0.67;;;;;23.66;51.59;100462.84;4923270;29;44874;-96
2023/07/15 09:50:37;;;;;;;;;1.00;1.00;;;;;23.71;51.50;100465.03;4920693;29;45665;-96
2023/07/15 09:53:04;;;;;;;;;2.67;1.67;;;;;23.72;51.62;100472.03;4914022;29;45277;-96
2023/07/15 09:55:33;;;;;;;;;1.00;1.00;;;;;23.75;51.29;100471.75;4903951;29;45336;-96
2023/07/15 09:58:24;;;;;;;;;0.67;0.67;;;;;23.78;51.67;100468.78;4906648;29;44916;-94
2023/07/15 10:01:01;;;;;;;;;0.00;0.00;;;;;23.78;51.35;100483.91;4917183;29;47465;-95
2023/07/15 10:03:41;;;;;;;;;2.00;0.00;;;;;23.87;51.62;100497.13;4903418;29;45177;-95
2023/07/15 10:06:10;;;;;;;;;2.00;0.67;;;;;23.98;50.66;100487.28;4920328;28;44822;-96
2023/07/15 10:08:39;;;;;;;;;2.00;1.33;;;;;24.10;50.84;100506.50;4918818;28;44951;-96
2023/07/15 18:32:30;;;;;;;;;6.00;5.00;;;;;24.28;50.38;100533.13;4880555;29;46639;-94
2023/07/15 18:34:58;;;;;;;;;0.67;0.67;;;;;24.23;48.29;100533.59;4833840;29;45291;-93
2023/07/15 18:37:24;;;;;;;;;0.00;0.00;;;;;24.23;45.14;100540.72;4877921;29;45241;-95
2023/07/15 18:39:50;;;;;;;;;1.00;0.00;;;;;24.19;43.17;100542.84;4886260;29;45495;-95
2023/07/15 18:42:15;;;;;;;;;0.67;0.00;;;;;24.18;42.03;100538.50;4853135;29;46967;-93
2023/07/15 18:44:41;;;;;;;;;0.00;0.00;;;;;24.17;41.38;100557.25;4865974;29;45481;-94
2023/07/15 18:47:06;;;;;;;;;2.00;0.00;;;;;24.14;40.14;100580.50;4875645;29;45397;-96
2023/07/15 18:49:31;;;;;;;;;0.00;0.00;;;;;24.11;39.61;100569.34;4874419;29;45310;-96
2023/07/15 18:51:57;;;;;;;;;0.00;0.00;;;;;24.10;39.29;100588.91;4866450;29;45189;-96
2023/07/15 18:54:22;;;;;;;;;1.33;0.00;;;;;24.06;38.55;100572.38;4874578;29;45528;-94
2023/07/15 18:56:48;;;;;;;;;0.00;0.00;;;;;24.07;38.25;100574.06;4860989;29;44771;-95
2023/07/15 18:59:13;;;;;;;;;1.67;0.00;;;;;24.06;38.14;100579.53;4870690;29;45075;-94
2023/07/15 19:01:41;;;;;;;;;1.00;0.00;;;;;24.06;38.05;100583.00;4874344;29;45683;-94
2023/07/15 19:04:06;;;;;;;;;0.00;0.00;;;;;24.04;38.31;100582.34;4873601;29;45461;-94
2023/07/15 19:06:31;;;;;;;;;0.67;0.00;;;;;24.07;37.92;100583.88;4874046;29;45286;-93
2023/07/15 19:08:57;;;;;;;;;0.00;0.00;;;;;24.03;37.82;100596.63;4857415;29;45112;-94
2023/07/15 19:11:24;;;;;;;;;0.00;0.00;;;;;24.01;37.14;100596.75;4855204;29;47017;-94
2023/07/15 19:13:49;;;;;;;;;0.33;0.00;;;;;23.98;37.03;100597.03;4873673;29;45494;-92
2023/07/15 19:16:17;;;;;;;;;0.00;0.00;;;;;23.95;36.99;100607.13;4872471;29;45353;-96
2023/07/15 19:18:42;;;;;;;;;2.00;0.00;;;;;23.91;37.60;100614.56;4874859;29;45438;-94
2023/07/15 19:21:08;;;;;;;;;0.00;0.00;;;;;23.88;36.02;100636.94;4876355;29;46849;-95
2023/07/15 19:23:33;;;;;;;;;0.00;0.00;;;;;23.83;36.02;100628.56;4859546;29;44801;-94
2023/07/15 19:25:58;;;;;;;;;1.00;1.00;;;;;23.80;36.27;100628.88;4869451;29;44838;-94
2023/07/15 19:28:25;;;;;;;;;0.67;0.00;;;;;23.77;36.32;100629.16;4875963;29;45525;-95
2023/07/15 19:30:50;;;;;;;;;0.00;0.00;;;;;23.76;36.22;100646.91;4886253;29;45470;-94
2023/07/15 19:33:16;;;;;;;;;0.00;0.00;;;;;23.74;35.99;100645.38;4876670;29;44661;-95
2023/07/15 19:35:41;;;;;;;;;0.00;0.00;;;;;23.70;35.38;100646.66;4882150;29;44642;-94
2023/07/15 19:38:06;;;;;;;;;0.00;0.00;;;;;23.62;35.29;100658.81;4881518;29;44881;-96
2023/07/15 19:40:32;;;;;;;;;0.00;0.00;;;;;23.60;35.08;100662.59;4877772;29;47076;-92
2023/07/15 19:43:00;;;;;;;;;0.00;0.00;;;;;23.56;35.42;100669.19;4895612;29;44720;-94
2023/07/15 19:45:25;;;;;;;;;2.00;0.00;;;;;23.51;35.65;100668.78;4891426;29;45479;-94
2023/07/15 19:47:51;;;;;;;;;0.00;0.00;;;;;23.47;34.47;100670.88;4874769;29;44846;-95
2023/07/15 19:50:17;;;;;;;;;0.33;0.33;;;;;23.42;35.14;100681.91;4878169;29;47249;-93
2023/07/15 19:52:42;;;;;;;;;1.33;0.00;;;;;23.38;35.25;100677.03;4883560;29;44832;-95
2023/07/15 19:55:08;;;;;;;;;0.00;0.00;;;;;23.35;35.04;100694.94;4884163;29;44844;-96
2023/07/15 19:57:36;;;;;;;;;0.33;0.33;;;;;23.25;35.12;100687.91;4907662;29;44878;-94
2023/07/15 20:00:03;;;;;;;;;0.33;0.33;;;;;23.23;34.88;100696.00;4887808;29;46744;-95
2023/07/15 20:02:30;;;;;;;;;0.33;0.33;;;;;23.16;35.28;100701.03;4898851;28;44981;-95
2023/07/15 20:04:56;;;;;;;;;0.67;0.00;;;;;23.09;35.49;100703.41;4885922;28;44698;-95
